Deo Volente — PHFJ — position and weather

sailwx.info

Track history (hours):
 
Tides and Currents Weather Stations Pressure Air Temp Water Temp Dewpoint Dewpoint Depression Visibility Wind Speed Wind Dir Waves Ship Positions

Deo Volente

Last reported at 2018-Feb-20 23:36 UTC. Time now 2018-Feb-21 11:52 UTC.
Position N 58°22' E 005°06'.

Length 105 m; draft 4.8 m.

Type: Cargo ship. MMSI: 246518000.

Date/timePositionNaut miles runAvg speedWind from/ knotsBaromVisibWave heightAir tempDewpointWater temp
2018-Feb-20 23:36N 58°22' E 005°06'217.3
2018-Feb-20 23:29N 58°24' E 005°06'816.9
2018-Feb-20 23:00N 58°32' E 005°10'917.3
2018-Feb-20 22:30N 58°41' E 005°11'816.9
2018-Feb-20 22:00N 58°49' E 005°11'816.5
2018-Feb-20 21:30N 58°58' E 005°12'815.6
2018-Feb-20 21:00N 59°05' E 005°17'816.6
2018-Feb-20 20:30N 59°13' E 005°20'714.9
2018-Feb-20 20:00N 59°21' E 005°19'510.9
2018-Feb-20 19:30N 59°25' E 005°14'815.9
2018-Feb-20 19:00N 59°33' E 005°13'917.3
2018-Feb-20 18:30N 59°40' E 005°23'815.4
2018-Feb-20 18:00N 59°44' E 005°36'714.4
2018-Feb-20 17:30N 59°39' E 005°47'3 5.6
2018-Feb-20 17:00N 59°36' E 005°46'0 0.0
2018-Feb-20 16:30N 59°36' E 005°46'0 0.0
2018-Feb-20 16:00N 59°36' E 005°46'0 0.0
2018-Feb-20 15:30N 59°36' E 005°46'0 0.0
2018-Feb-20 15:00N 59°36' E 005°46'0 0.0
2018-Feb-20 14:30N 59°36' E 005°46'0 0.0
2018-Feb-20 14:00N 59°36' E 005°46'0 0.0
2018-Feb-20 13:30N 59°36' E 005°46'0 0.0
2018-Feb-20 13:00N 59°36' E 005°46'0 0.0
2018-Feb-20 12:30N 59°36' E 005°46'0 0.1
2018-Feb-20 12:01N 59°36' E 005°46'0 0.1
2018-Feb-20 11:30N 59°36' E 005°46'0 0.0
2018-Feb-20 11:00N 59°36' E 005°46'0 0.0
2018-Feb-20 10:30N 59°36' E 005°46'0 0.0
2018-Feb-20 10:00N 59°36' E 005°46'0 0.0
2018-Feb-20 09:30N 59°36' E 005°46'0 0.0
2018-Feb-20 09:00N 59°36' E 005°46'0 0.0
2018-Feb-20 08:30N 59°36' E 005°46'0 0.0
2018-Feb-20 08:00N 59°36' E 005°46'0 0.0
2018-Feb-20 07:30N 59°36' E 005°46'0 0.0
2018-Feb-20 07:00N 59°36' E 005°46'0 0.1
2018-Feb-20 06:31N 59°36' E 005°46'2 4.3
2018-Feb-20 06:00N 59°39' E 005°47'511.0
2018-Feb-20 05:30N 59°42' E 005°40'815.4
2018-Feb-20 05:00N 59°50' E 005°33'815.7
2018-Feb-20 04:30N 59°57' E 005°27'815.2
2018-Feb-20 04:00N 60°03' E 005°19'815.5
2018-Feb-20 03:30N 60°11' E 005°14'713.8
2018-Feb-20 03:00N 60°09' E 005°01'611.5
2018-Feb-20 02:30N 60°11' E 004°50'4 8.6
2018-Feb-20 02:00N 60°13' E 004°43'510.1
2018-Feb-20 01:30N 60°18' E 004°40'613.0
2018-Feb-20 01:00N 60°24' E 004°36'510.8
2018-Feb-20 00:30N 60°30' E 004°33'611.1
2018-Feb-20 00:00N 60°35' E 004°31'713.5
2018-Feb-19 23:30N 60°42' E 004°27'714.0
2018-Feb-19 23:00N 60°48' E 004°23'713.9
2018-Feb-19 22:30N 60°55' E 004°18'612.9
2018-Feb-19 22:00N 61°01' E 004°16'713.6
2018-Feb-19 21:30N 61°08' E 004°16'2411.3
2018-Feb-19 19:21N 61°32' E 004°20'513.1
2018-Feb-19 19:00N 61°37' E 004°23'713.2
2018-Feb-19 18:30N 61°43' E 004°28'613.0
2018-Feb-19 18:00N 61°49' E 004°32'612.8
2018-Feb-19 17:30N 61°55' E 004°35'612.7
2018-Feb-19 17:00N 62°01' E 004°42'612.6
2018-Feb-19 16:30N 62°06' E 004°49'612.7
2018-Feb-19 16:00N 62°11' E 004°57'712.9
2018-Feb-19 15:29N 62°17' E 005°04'612.7
2018-Feb-19 15:00N 62°22' E 005°12'612.6
2018-Feb-19 14:30N 62°25' E 005°23'713.1
2018-Feb-19 14:00N 62°29' E 005°35'612.9
2018-Feb-19 13:30N 62°29' E 005°49'713.2
2018-Feb-19 13:00N 62°27' E 006°03'5 9.8
2018-Feb-19 12:30N 62°31' E 006°09'713.8
2018-Feb-19 12:00N 62°37' E 006°18'815.7
2018-Feb-19 11:30N 62°38' E 006°35'917.2
2018-Feb-19 11:00N 62°41' E 006°53'713.9
2018-Feb-19 10:30N 62°39' E 007°07'1 2.0
2018-Feb-19 09:59N 62°38' E 007°07'0 0.1
2018-Feb-19 09:29N 62°38' E 007°07'0 0.1
2018-Feb-19 08:59N 62°37' E 007°07'0 0.0
2018-Feb-19 08:29N 62°38' E 007°07'0 0.0
2018-Feb-19 07:59N 62°38' E 007°07'0 0.1
2018-Feb-19 07:29N 62°37' E 007°07'0 0.0
2018-Feb-19 06:59N 62°37' E 007°07'0 0.0
2018-Feb-19 06:29N 62°37' E 007°07'0 0.1
2018-Feb-19 05:59N 62°38' E 007°07'0 0.1
2018-Feb-19 05:29N 62°38' E 007°07'0 0.2
2018-Feb-19 04:59N 62°37' E 007°07'0 0.1
2018-Feb-19 04:29N 62°37' E 007°07'0 0.1
2018-Feb-19 03:59N 62°38' E 007°07'0 0.0
2018-Feb-19 03:29N 62°38' E 007°07'0 0.0
2018-Feb-19 02:56N 62°38' E 007°07'0 0.0
2018-Feb-19 02:29N 62°38' E 007°07'0 0.0
2018-Feb-19 01:59N 62°38' E 007°07'0 0.0
2018-Feb-19 01:29N 62°38' E 007°07'0 0.0
2018-Feb-19 00:59N 62°38' E 007°07'0 0.0
2018-Feb-19 00:29N 62°38' E 007°07'0 0.0
2018-Feb-18 23:59N 62°38' E 007°07'0 0.1
2018-Feb-18 23:29N 62°37' E 007°07'0 0.1
2018-Feb-18 23:00N 62°37' E 007°07'0 0.1
2018-Feb-18 22:30N 62°37' E 007°07'1 2.1
2018-Feb-18 21:59N 62°39' E 007°07'612.4
2018-Feb-18 21:30N 62°41' E 006°56'714.2
2018-Feb-18 21:00N 62°39' E 006°41'714.1
2018-Feb-18 20:30N 62°38' E 006°26'713.2
2018-Feb-18 20:00N 62°35' E 006°13'612.7
2018-Feb-18 19:30N 62°29' E 006°07'510.5
2018-Feb-18 19:00N 62°27' E 005°56'714.6
2018-Feb-18 18:30N 62°27' E 005°41'814.8
2018-Feb-18 18:00N 62°25' E 005°25'816.0
2018-Feb-18 17:30N 62°22' E 005°09'815.1
2018-Feb-18 17:00N 62°16' E 004°57'815.9
2018-Feb-18 16:30N 62°09' E 004°50'816.4
2018-Feb-18 15:59N 62°02' E 004°42'817.4
2018-Feb-18 15:30N 61°54' E 004°34'816.6
2018-Feb-18 15:00N 61°46' E 004°29'815.9
2018-Feb-18 14:30N 61°39' E 004°25'2715.4
2018-Feb-18 12:46N 61°12' E 004°16'414.1
2018-Feb-18 12:30N 61°09' E 004°16'712.9
2018-Feb-18 11:59N 61°02' E 004°15'612.9
2018-Feb-18 11:30N 60°56' E 004°17'612.4
2018-Feb-18 11:00N 60°50' E 004°19'611.9
2018-Feb-18 10:30N 60°44' E 004°22'612.7
2018-Feb-18 10:00N 60°37' E 004°22'612.9
2018-Feb-18 09:30N 60°31' E 004°24'713.6
2018-Feb-18 09:00N 60°24' E 004°27'612.7
2018-Feb-18 08:30N 60°18' E 004°29'612.5
2018-Feb-18 08:00N 60°12' E 004°31'612.0
2018-Feb-18 07:30N 60°06' E 004°32'611.3
2018-Feb-18 06:59N 60°00' E 004°33'5211.6
2018-Feb-18 02:32N 59°09' E 004°50'011.6
2018-Feb-18 02:30N 59°09' E 004°50'611.4
2018-Feb-18 02:00N 59°04' E 004°55'612.6
2018-Feb-18 01:30N 58°59' E 005°02'612.9
2018-Feb-18 01:00N 58°53' E 005°08'713.2
2018-Feb-18 00:30N 58°47' E 005°13'612.8
2018-Feb-18 00:00N 58°41' E 005°19'612.7
2018-Feb-17 23:30N 58°36' E 005°25'612.5
2018-Feb-17 23:00N 58°31' E 005°31'612.7
2018-Feb-17 22:30N 58°26' E 005°39'611.5
2018-Feb-17 22:00N 58°21' E 005°47'510.9
2018-Feb-17 21:29N 58°17' E 005°54'510.9
2018-Feb-17 21:00N 58°14' E 006°01'510.8
2018-Feb-17 20:30N 58°10' E 006°09'611.2
2018-Feb-17 20:00N 58°07' E 006°18'612.5
2018-Feb-17 19:30N 58°04' E 006°28'612.6
2018-Feb-17 19:00N 58°00' E 006°37'713.5
2018-Feb-17 18:30N 57°57' E 006°48'916.9
2018-Feb-17 17:59N 57°54' E 007°04'510.3
2018-Feb-17 17:30N 57°53' E 007°13'5 9.6
2018-Feb-17 17:00N 57°54' E 007°22'714.2
2018-Feb-17 16:30N 57°56' E 007°34'714.5
2018-Feb-17 16:00N 57°58' E 007°48'4 8.4
2018-Feb-17 15:30N 58°02' E 007°50'3 5.1
2018-Feb-17 15:00N 58°04' E 007°48'0 0.1
2018-Feb-17 14:30N 58°04' E 007°48'0 0.0
2018-Feb-17 13:59N 58°04' E 007°48'0 0.0
2018-Feb-17 13:29N 58°04' E 007°48'0 0.0
2018-Feb-17 12:59N 58°04' E 007°48'0 0.0
2018-Feb-17 12:29N 58°04' E 007°48'0 0.0
2018-Feb-17 11:59N 58°04' E 007°48'0 0.0
2018-Feb-17 11:29N 58°04' E 007°48'0 0.0
2018-Feb-17 10:59N 58°04' E 007°48'0 0.0
2018-Feb-17 10:29N 58°04' E 007°48'0 0.0
2018-Feb-17 09:59N 58°04' E 007°48'0 0.0
2018-Feb-17 09:29N 58°04' E 007°48'0 0.0
2018-Feb-17 08:59N 58°04' E 007°48'0 0.0
2018-Feb-17 08:29N 58°04' E 007°48'0 0.3
2018-Feb-17 08:00N 58°04' E 007°48'3 6.4
2018-Feb-17 07:30N 58°02' E 007°52'714.1
2018-Feb-17 07:00N 58°04' E 008°05'3 6.1
2018-Feb-17 06:31N 58°01' E 008°05'4 7.0
2018-Feb-17 06:00N 57°57' E 008°04'5 9.0
2018-Feb-17 05:30N 57°53' E 008°03'4 8.9
2018-Feb-17 05:01N 57°48' E 008°02'4 8.7
2018-Feb-17 04:30N 57°44' E 008°01'24810.5
2018-Feb-16 04:51N 53°57' E 005°04'411.4
2018-Feb-16 04:29N 53°53' E 005°01'511.2
2018-Feb-16 04:00N 53°48' E 004°57'611.1
2018-Feb-16 03:30N 53°43' E 004°53'3710.6
2018-Feb-16 00:00N 53°08' E 004°30'510.4
2018-Feb-15 23:30N 53°04' E 004°26'510.5
2018-Feb-15 23:01N 52°59' E 004°22'510.4
2018-Feb-15 22:30N 52°55' E 004°17'510.3
2018-Feb-15 22:01N 52°50' E 004°13'510.3
2018-Feb-15 21:30N 52°46' E 004°07'510.3
2018-Feb-15 20:59N 52°43' E 004°01'510.2
2018-Feb-15 20:30N 52°39' E 003°56'5 9.9
2018-Feb-15 19:59N 52°35' E 003°50'510.1
2018-Feb-15 19:28N 52°31' E 003°44'510.3
2018-Feb-15 19:00N 52°28' E 003°39'611.1
2018-Feb-15 18:26N 52°23' E 003°32'512.1
2018-Feb-15 18:00N 52°19' E 003°26'612.6
2018-Feb-15 17:30N 52°15' E 003°19'713.8
2018-Feb-15 16:59N 52°09' E 003°11'612.4
2018-Feb-15 16:30N 52°05' E 003°05'611.9
2018-Feb-15 16:01N 52°00' E 002°59'1217.6
2018-Feb-15 15:21N 51°52' E 002°46'718.9
2018-Feb-15 14:59N 51°46' E 002°39'918.9
2018-Feb-15 14:30N 51°39' E 002°31'5 9.1
2018-Feb-15 13:57N 51°35' E 002°26'0 0.0
2018-Feb-15 13:27N 51°35' E 002°26'0 0.0
2018-Feb-15 13:00N 51°35' E 002°26'0 0.0
2018-Feb-15 12:30N 51°35' E 002°26'0 0.0
2018-Feb-15 12:00N 51°35' E 002°26'2 3.7
2018-Feb-15 11:30N 51°33' E 002°24'815.4
2018-Feb-15 11:00N 51°28' E 002°15'715.1
2018-Feb-15 10:31N 51°21' E 002°09'815.2
2018-Feb-15 10:00N 51°15' E 002°04'815.3
2018-Feb-15 09:31N 51°10' E 001°54'714.9
2018-Feb-15 09:01N 51°05' E 001°46'714.8
2018-Feb-15 08:30N 50°59' E 001°38'4 8.9
2018-Feb-15 08:00N 50°56' E 001°32'4 9.1
2018-Feb-15 07:30N 50°52' E 001°29'713.6
2018-Feb-15 06:59N 50°46' E 001°23'5315.1
2018-Feb-15 03:26N 50°21' E 000°09'9316.2
2018-Feb-14 21:42N 49°56' W 002°11'418.4
2018-Feb-14 21:30N 49°55' W 002°16'918.6
2018-Feb-14 21:00N 49°53' W 002°30'11718.4
2018-Feb-14 14:37N 48°56' W 005°07'218.0
2018-Feb-14 14:30N 48°55' W 005°10'1018.2
2018-Feb-14 13:59N 48°50' W 005°23'918.1
2018-Feb-14 13:29N 48°45' W 005°34'1017.8
2018-Feb-14 12:55N 48°37' W 005°44'817.6
2018-Feb-14 12:27N 48°29' W 005°47'1017.5
2018-Feb-14 11:53N 48°20' W 005°50'  
2018-Feb-11 04:56N 28°53' W 015°06'613.9
2018-Feb-11 04:29N 28°47' W 015°09'713.8
2018-Feb-11 04:00N 28°41' W 015°11'714.1
2018-Feb-11 03:30N 28°34' W 015°13'714.2
2018-Feb-11 03:00N 28°27' W 015°15'714.0
2018-Feb-11 02:30N 28°20' W 015°18'714.4
2018-Feb-11 02:00N 28°14' W 015°20'714.1
2018-Feb-11 01:30N 28°07' W 015°24'2 4.4
2018-Feb-11 01:00N 28°09' W 015°25'0 0.0
2018-Feb-11 00:27N 28°09' W 015°25'0 0.0
2018-Feb-11 00:00N 28°09' W 015°25'  
Track history (hours):
 
Tides and Currents Weather Stations Pressure Air Temp Water Temp Dewpoint Dewpoint Depression Visibility Wind Speed Wind Dir Waves Ship Positions

Deo Volente

Last reported at 2018-Feb-20 23:36 UTC. Time now 2018-Feb-21 11:52 UTC.
Position N 58°22' E 005°06'.

Length 105 m; draft 4.8 m.

Type: Cargo ship. MMSI: 246518000.

Date/timePositionNaut miles runAvg speedWind from/ knotsBaromVisibWave heightAir tempDewpointWater temp
2018-Feb-20 23:36N 58°22' E 005°06'217.3
2018-Feb-20 23:29N 58°24' E 005°06'816.9
2018-Feb-20 23:00N 58°32' E 005°10'917.3
2018-Feb-20 22:30N 58°41' E 005°11'816.9
2018-Feb-20 22:00N 58°49' E 005°11'816.5
2018-Feb-20 21:30N 58°58' E 005°12'815.6
2018-Feb-20 21:00N 59°05' E 005°17'816.6
2018-Feb-20 20:30N 59°13' E 005°20'714.9
2018-Feb-20 20:00N 59°21' E 005°19'510.9
2018-Feb-20 19:30N 59°25' E 005°14'815.9
2018-Feb-20 19:00N 59°33' E 005°13'917.3
2018-Feb-20 18:30N 59°40' E 005°23'815.4
2018-Feb-20 18:00N 59°44' E 005°36'714.4
2018-Feb-20 17:30N 59°39' E 005°47'3 5.6
2018-Feb-20 17:00N 59°36' E 005°46'0 0.0
2018-Feb-20 16:30N 59°36' E 005°46'0 0.0
2018-Feb-20 16:00N 59°36' E 005°46'0 0.0
2018-Feb-20 15:30N 59°36' E 005°46'0 0.0
2018-Feb-20 15:00N 59°36' E 005°46'0 0.0
2018-Feb-20 14:30N 59°36' E 005°46'0 0.0
2018-Feb-20 14:00N 59°36' E 005°46'0 0.0
2018-Feb-20 13:30N 59°36' E 005°46'0 0.0
2018-Feb-20 13:00N 59°36' E 005°46'0 0.0
2018-Feb-20 12:30N 59°36' E 005°46'0 0.1
2018-Feb-20 12:01N 59°36' E 005°46'0 0.1
2018-Feb-20 11:30N 59°36' E 005°46'0 0.0
2018-Feb-20 11:00N 59°36' E 005°46'0 0.0
2018-Feb-20 10:30N 59°36' E 005°46'0 0.0
2018-Feb-20 10:00N 59°36' E 005°46'0 0.0
2018-Feb-20 09:30N 59°36' E 005°46'0 0.0
2018-Feb-20 09:00N 59°36' E 005°46'0 0.0
2018-Feb-20 08:30N 59°36' E 005°46'0 0.0
2018-Feb-20 08:00N 59°36' E 005°46'0 0.0
2018-Feb-20 07:30N 59°36' E 005°46'0 0.0
2018-Feb-20 07:00N 59°36' E 005°46'0 0.1
2018-Feb-20 06:31N 59°36' E 005°46'2 4.3
2018-Feb-20 06:00N 59°39' E 005°47'511.0
2018-Feb-20 05:30N 59°42' E 005°40'815.4
2018-Feb-20 05:00N 59°50' E 005°33'815.7
2018-Feb-20 04:30N 59°57' E 005°27'815.2
2018-Feb-20 04:00N 60°03' E 005°19'815.5
2018-Feb-20 03:30N 60°11' E 005°14'713.8
2018-Feb-20 03:00N 60°09' E 005°01'611.5
2018-Feb-20 02:30N 60°11' E 004°50'4 8.6
2018-Feb-20 02:00N 60°13' E 004°43'510.1
2018-Feb-20 01:30N 60°18' E 004°40'613.0
2018-Feb-20 01:00N 60°24' E 004°36'510.8
2018-Feb-20 00:30N 60°30' E 004°33'611.1
2018-Feb-20 00:00N 60°35' E 004°31'713.5
2018-Feb-19 23:30N 60°42' E 004°27'714.0
2018-Feb-19 23:00N 60°48' E 004°23'713.9
2018-Feb-19 22:30N 60°55' E 004°18'612.9
2018-Feb-19 22:00N 61°01' E 004°16'713.6
2018-Feb-19 21:30N 61°08' E 004°16'2411.3
2018-Feb-19 19:21N 61°32' E 004°20'513.1
2018-Feb-19 19:00N 61°37' E 004°23'713.2
2018-Feb-19 18:30N 61°43' E 004°28'613.0
2018-Feb-19 18:00N 61°49' E 004°32'612.8
2018-Feb-19 17:30N 61°55' E 004°35'612.7
2018-Feb-19 17:00N 62°01' E 004°42'612.6
2018-Feb-19 16:30N 62°06' E 004°49'612.7
2018-Feb-19 16:00N 62°11' E 004°57'712.9
2018-Feb-19 15:29N 62°17' E 005°04'612.7
2018-Feb-19 15:00N 62°22' E 005°12'612.6
2018-Feb-19 14:30N 62°25' E 005°23'713.1
2018-Feb-19 14:00N 62°29' E 005°35'612.9
2018-Feb-19 13:30N 62°29' E 005°49'713.2
2018-Feb-19 13:00N 62°27' E 006°03'5 9.8
2018-Feb-19 12:30N 62°31' E 006°09'713.8
2018-Feb-19 12:00N 62°37' E 006°18'815.7
2018-Feb-19 11:30N 62°38' E 006°35'917.2
2018-Feb-19 11:00N 62°41' E 006°53'713.9
2018-Feb-19 10:30N 62°39' E 007°07'1 2.0
2018-Feb-19 09:59N 62°38' E 007°07'0 0.1
2018-Feb-19 09:29N 62°38' E 007°07'0 0.1
2018-Feb-19 08:59N 62°37' E 007°07'0 0.0
2018-Feb-19 08:29N 62°38' E 007°07'0 0.0
2018-Feb-19 07:59N 62°38' E 007°07'0 0.1
2018-Feb-19 07:29N 62°37' E 007°07'0 0.0
2018-Feb-19 06:59N 62°37' E 007°07'0 0.0
2018-Feb-19 06:29N 62°37' E 007°07'0 0.1
2018-Feb-19 05:59N 62°38' E 007°07'0 0.1
2018-Feb-19 05:29N 62°38' E 007°07'0 0.2
2018-Feb-19 04:59N 62°37' E 007°07'0 0.1
2018-Feb-19 04:29N 62°37' E 007°07'0 0.1
2018-Feb-19 03:59N 62°38' E 007°07'0 0.0
2018-Feb-19 03:29N 62°38' E 007°07'0 0.0
2018-Feb-19 02:56N 62°38' E 007°07'0 0.0
2018-Feb-19 02:29N 62°38' E 007°07'0 0.0
2018-Feb-19 01:59N 62°38' E 007°07'0 0.0
2018-Feb-19 01:29N 62°38' E 007°07'0 0.0
2018-Feb-19 00:59N 62°38' E 007°07'0 0.0
2018-Feb-19 00:29N 62°38' E 007°07'0 0.0
2018-Feb-18 23:59N 62°38' E 007°07'0 0.1
2018-Feb-18 23:29N 62°37' E 007°07'0 0.1
2018-Feb-18 23:00N 62°37' E 007°07'0 0.1
2018-Feb-18 22:30N 62°37' E 007°07'1 2.1
2018-Feb-18 21:59N 62°39' E 007°07'612.4
2018-Feb-18 21:30N 62°41' E 006°56'714.2
2018-Feb-18 21:00N 62°39' E 006°41'714.1
2018-Feb-18 20:30N 62°38' E 006°26'713.2
2018-Feb-18 20:00N 62°35' E 006°13'612.7
2018-Feb-18 19:30N 62°29' E 006°07'510.5
2018-Feb-18 19:00N 62°27' E 005°56'714.6
2018-Feb-18 18:30N 62°27' E 005°41'814.8
2018-Feb-18 18:00N 62°25' E 005°25'816.0
2018-Feb-18 17:30N 62°22' E 005°09'815.1
2018-Feb-18 17:00N 62°16' E 004°57'815.9
2018-Feb-18 16:30N 62°09' E 004°50'816.4
2018-Feb-18 15:59N 62°02' E 004°42'817.4
2018-Feb-18 15:30N 61°54' E 004°34'816.6
2018-Feb-18 15:00N 61°46' E 004°29'815.9
2018-Feb-18 14:30N 61°39' E 004°25'2715.4
2018-Feb-18 12:46N 61°12' E 004°16'414.1
2018-Feb-18 12:30N 61°09' E 004°16'712.9
2018-Feb-18 11:59N 61°02' E 004°15'612.9
2018-Feb-18 11:30N 60°56' E 004°17'612.4
2018-Feb-18 11:00N 60°50' E 004°19'611.9
2018-Feb-18 10:30N 60°44' E 004°22'612.7
2018-Feb-18 10:00N 60°37' E 004°22'612.9
2018-Feb-18 09:30N 60°31' E 004°24'713.6
2018-Feb-18 09:00N 60°24' E 004°27'612.7
2018-Feb-18 08:30N 60°18' E 004°29'612.5
2018-Feb-18 08:00N 60°12' E 004°31'612.0
2018-Feb-18 07:30N 60°06' E 004°32'611.3
2018-Feb-18 06:59N 60°00' E 004°33'5211.6
2018-Feb-18 02:32N 59°09' E 004°50'011.6
2018-Feb-18 02:30N 59°09' E 004°50'611.4
2018-Feb-18 02:00N 59°04' E 004°55'612.6
2018-Feb-18 01:30N 58°59' E 005°02'612.9
2018-Feb-18 01:00N 58°53' E 005°08'713.2
2018-Feb-18 00:30N 58°47' E 005°13'612.8
2018-Feb-18 00:00N 58°41' E 005°19'612.7
2018-Feb-17 23:30N 58°36' E 005°25'612.5
2018-Feb-17 23:00N 58°31' E 005°31'612.7
2018-Feb-17 22:30N 58°26' E 005°39'611.5
2018-Feb-17 22:00N 58°21' E 005°47'510.9
2018-Feb-17 21:29N 58°17' E 005°54'510.9
2018-Feb-17 21:00N 58°14' E 006°01'510.8
2018-Feb-17 20:30N 58°10' E 006°09'611.2
2018-Feb-17 20:00N 58°07' E 006°18'612.5
2018-Feb-17 19:30N 58°04' E 006°28'612.6
2018-Feb-17 19:00N 58°00' E 006°37'713.5
2018-Feb-17 18:30N 57°57' E 006°48'916.9
2018-Feb-17 17:59N 57°54' E 007°04'510.3
2018-Feb-17 17:30N 57°53' E 007°13'5 9.6
2018-Feb-17 17:00N 57°54' E 007°22'714.2
2018-Feb-17 16:30N 57°56' E 007°34'714.5
2018-Feb-17 16:00N 57°58' E 007°48'4 8.4
2018-Feb-17 15:30N 58°02' E 007°50'3 5.1
2018-Feb-17 15:00N 58°04' E 007°48'0 0.1
2018-Feb-17 14:30N 58°04' E 007°48'0 0.0
2018-Feb-17 13:59N 58°04' E 007°48'0 0.0
2018-Feb-17 13:29N 58°04' E 007°48'0 0.0
2018-Feb-17 12:59N 58°04' E 007°48'0 0.0
2018-Feb-17 12:29N 58°04' E 007°48'0 0.0
2018-Feb-17 11:59N 58°04' E 007°48'0 0.0
2018-Feb-17 11:29N 58°04' E 007°48'0 0.0
2018-Feb-17 10:59N 58°04' E 007°48'0 0.0
2018-Feb-17 10:29N 58°04' E 007°48'0 0.0
2018-Feb-17 09:59N 58°04' E 007°48'0 0.0
2018-Feb-17 09:29N 58°04' E 007°48'0 0.0
2018-Feb-17 08:59N 58°04' E 007°48'0 0.0
2018-Feb-17 08:29N 58°04' E 007°48'0 0.3
2018-Feb-17 08:00N 58°04' E 007°48'3 6.4
2018-Feb-17 07:30N 58°02' E 007°52'714.1
2018-Feb-17 07:00N 58°04' E 008°05'3 6.1
2018-Feb-17 06:31N 58°01' E 008°05'4 7.0
2018-Feb-17 06:00N 57°57' E 008°04'5 9.0
2018-Feb-17 05:30N 57°53' E 008°03'4 8.9
2018-Feb-17 05:01N 57°48' E 008°02'4 8.7
2018-Feb-17 04:30N 57°44' E 008°01'24810.5
2018-Feb-16 04:51N 53°57' E 005°04'411.4
2018-Feb-16 04:29N 53°53' E 005°01'511.2
2018-Feb-16 04:00N 53°48' E 004°57'611.1
2018-Feb-16 03:30N 53°43' E 004°53'3710.6
2018-Feb-16 00:00N 53°08' E 004°30'510.4
2018-Feb-15 23:30N 53°04' E 004°26'510.5
2018-Feb-15 23:01N 52°59' E 004°22'510.4
2018-Feb-15 22:30N 52°55' E 004°17'510.3
2018-Feb-15 22:01N 52°50' E 004°13'510.3
2018-Feb-15 21:30N 52°46' E 004°07'510.3
2018-Feb-15 20:59N 52°43' E 004°01'510.2
2018-Feb-15 20:30N 52°39' E 003°56'5 9.9
2018-Feb-15 19:59N 52°35' E 003°50'510.1
2018-Feb-15 19:28N 52°31' E 003°44'510.3
2018-Feb-15 19:00N 52°28' E 003°39'611.1
2018-Feb-15 18:26N 52°23' E 003°32'512.1
2018-Feb-15 18:00N 52°19' E 003°26'612.6
2018-Feb-15 17:30N 52°15' E 003°19'713.8
2018-Feb-15 16:59N 52°09' E 003°11'612.4
2018-Feb-15 16:30N 52°05' E 003°05'611.9
2018-Feb-15 16:01N 52°00' E 002°59'1217.6
2018-Feb-15 15:21N 51°52' E 002°46'718.9
2018-Feb-15 14:59N 51°46' E 002°39'918.9
2018-Feb-15 14:30N 51°39' E 002°31'5 9.1
2018-Feb-15 13:57N 51°35' E 002°26'0 0.0
2018-Feb-15 13:27N 51°35' E 002°26'0 0.0
2018-Feb-15 13:00N 51°35' E 002°26'0 0.0
2018-Feb-15 12:30N 51°35' E 002°26'0 0.0
2018-Feb-15 12:00N 51°35' E 002°26'2 3.7
2018-Feb-15 11:30N 51°33' E 002°24'815.4
2018-Feb-15 11:00N 51°28' E 002°15'715.1
2018-Feb-15 10:31N 51°21' E 002°09'815.2
2018-Feb-15 10:00N 51°15' E 002°04'815.3
2018-Feb-15 09:31N 51°10' E 001°54'714.9
2018-Feb-15 09:01N 51°05' E 001°46'714.8
2018-Feb-15 08:30N 50°59' E 001°38'4 8.9
2018-Feb-15 08:00N 50°56' E 001°32'4 9.1
2018-Feb-15 07:30N 50°52' E 001°29'713.6
2018-Feb-15 06:59N 50°46' E 001°23'5315.1
2018-Feb-15 03:26N 50°21' E 000°09'9316.2
2018-Feb-14 21:42N 49°56' W 002°11'418.4
2018-Feb-14 21:30N 49°55' W 002°16'918.6
2018-Feb-14 21:00N 49°53' W 002°30'11718.4
2018-Feb-14 14:37N 48°56' W 005°07'218.0
2018-Feb-14 14:30N 48°55' W 005°10'1018.2
2018-Feb-14 13:59N 48°50' W 005°23'918.1
2018-Feb-14 13:29N 48°45' W 005°34'1017.8
2018-Feb-14 12:55N 48°37' W 005°44'817.6
2018-Feb-14 12:27N 48°29' W 005°47'1017.5
2018-Feb-14 11:53N 48°20' W 005°50'  
2018-Feb-11 04:56N 28°53' W 015°06'613.9
2018-Feb-11 04:29N 28°47' W 015°09'713.8
2018-Feb-11 04:00N 28°41' W 015°11'714.1
2018-Feb-11 03:30N 28°34' W 015°13'714.2
2018-Feb-11 03:00N 28°27' W 015°15'714.0
2018-Feb-11 02:30N 28°20' W 015°18'714.4
2018-Feb-11 02:00N 28°14' W 015°20'714.1
2018-Feb-11 01:30N 28°07' W 015°24'2 4.4
2018-Feb-11 01:00N 28°09' W 015°25'0 0.0
2018-Feb-11 00:27N 28°09' W 015°25'0 0.0
2018-Feb-11 00:00N 28°09' W 015°25'  

Dump ship's entire track history